createdAt,value
2023-02-09T00:00:14.065Z,100579.25
2023-02-09T00:02:44.515Z,100580.09
2023-02-09T00:05:13.825Z,100584.78
2023-02-09T00:07:42.862Z,100574.44
2023-02-09T00:10:12.182Z,100583.13
2023-02-09T00:13:00.334Z,100571.78
2023-02-09T00:15:29.369Z,100573.44
2023-02-09T00:17:58.650Z,100580.56
2023-02-09T00:20:27.687Z,100580.03
2023-02-09T00:22:56.750Z,100575.84
2023-02-09T00:25:25.809Z,100565.25
2023-02-09T00:27:56.252Z,100568.06
2023-02-09T00:30:26.131Z,100565.31
2023-02-09T00:32:55.212Z,100560.34
2023-02-09T00:35:24.260Z,100569.16
2023-02-09T00:37:53.320Z,100559.41
2023-02-09T00:40:22.708Z,100554.44
2023-02-09T00:42:51.935Z,100564.88
2023-02-09T00:45:22.352Z,100557.88
2023-02-09T00:47:51.426Z,100551.94
2023-02-09T00:50:20.699Z,100547.66
2023-02-09T00:52:50.470Z,100548.03
2023-02-09T00:55:20.172Z,100544.13
2023-02-09T00:57:49.211Z,100557.50
2023-02-09T01:00:19.715Z,100547.53
2023-02-09T01:02:50.142Z,100549.50
2023-02-09T01:05:19.906Z,100545.03
2023-02-09T01:07:48.991Z,100541.13
2023-02-09T01:10:18.056Z,100534.72
2023-02-09T01:12:47.199Z,100535.19
2023-02-09T01:15:16.401Z,100529.13
2023-02-09T01:17:46.383Z,100525.53
2023-02-09T01:20:17.714Z,100524.75
2023-02-09T01:22:46.832Z,100522.78
2023-02-09T01:25:15.944Z,100521.22
2023-02-09T01:27:44.991Z,100509.88
2023-02-09T01:30:15.210Z,100517.44
2023-02-09T01:32:44.387Z,100515.22
2023-02-09T01:35:13.676Z,100510.56
2023-02-09T01:37:44.116Z,100510.41
2023-02-09T01:40:13.924Z,100509.88
2023-02-09T01:42:43.987Z,100505.03
2023-02-09T01:45:29.682Z,100501.72
2023-02-09T01:48:03.496Z,100493.16
2023-02-09T01:50:37.397Z,100496.84
2023-02-09T01:53:09.340Z,100484.84
2023-02-09T01:55:45.504Z,100479.69
2023-02-09T01:58:18.582Z,100477.69
2023-02-09T02:00:48.729Z,100477.34
2023-02-09T02:03:22.690Z,100476.31
2023-02-09T02:05:56.684Z,100473.09
2023-02-09T02:08:32.575Z,100471.69
2023-02-09T02:11:01.962Z,100461.28
2023-02-09T02:13:31.006Z,100462.19
2023-02-09T02:16:08.019Z,100460.31
2023-02-09T02:18:58.755Z,100456.66
2023-02-09T02:22:18.031Z,100455.13
2023-02-09T02:25:23.489Z,100444.75
2023-02-09T02:28:11.267Z,100456.91
2023-02-09T02:30:59.635Z,100437.66
2023-02-09T02:33:42.723Z,100434.59
2023-02-09T02:36:19.412Z,100431.41
2023-02-09T02:38:55.226Z,100426.84
2023-02-09T02:41:53.789Z,100433.88
2023-02-09T02:44:24.637Z,100431.53
2023-02-09T02:46:58.954Z,100432.22
2023-02-09T02:49:40.210Z,100433.88
2023-02-09T02:52:12.263Z,100431.25
2023-02-09T02:54:46.588Z,100425.56
2023-02-09T02:57:22.492Z,100421.88
2023-02-09T02:59:56.756Z,100411.31
2023-02-09T03:02:33.632Z,100410.25
2023-02-09T03:05:06.782Z,100409.59
2023-02-09T03:07:35.943Z,100404.44
2023-02-09T03:10:27.835Z,100398.03
2023-02-09T03:13:13.137Z,100403.34
2023-02-09T03:15:55.461Z,100400.66
2023-02-09T03:18:31.958Z,100403.91
2023-02-09T03:21:12.476Z,100392.38
2023-02-09T03:23:48.470Z,100390.88
2023-02-09T03:26:23.739Z,100401.28
2023-02-09T03:28:57.256Z,100394.66
2023-02-09T03:31:28.201Z,100390.72
2023-02-09T03:33:58.441Z,100389.91
2023-02-09T03:36:34.311Z,100381.97
2023-02-09T03:39:03.373Z,100386.00
2023-02-09T03:41:32.574Z,100378.78
2023-02-09T03:44:19.320Z,100384.94
2023-02-09T03:46:48.432Z,100384.72
2023-02-09T03:49:17.484Z,100380.81
2023-02-09T03:51:48.226Z,100384.50
2023-02-09T03:54:17.274Z,100388.78
2023-02-09T03:56:46.562Z,100383.34
2023-02-09T03:59:15.675Z,100383.75
2023-02-09T04:01:44.851Z,100382.84
2023-02-09T04:04:14.056Z,100389.97
2023-02-09T04:06:43.092Z,100393.53
2023-02-09T04:09:14.061Z,100389.53
2023-02-09T04:11:43.443Z,100383.09
2023-02-09T04:14:12.641Z,100386.47
2023-02-09T04:16:41.812Z,100391.31
2023-02-09T04:19:12.404Z,100383.72
2023-02-09T04:21:41.497Z,100385.41
2023-02-09T04:24:10.996Z,100394.53
2023-02-09T04:26:41.429Z,100392.69
2023-02-09T04:29:10.529Z,100391.09
2023-02-09T04:31:39.698Z,100393.00
2023-02-09T04:34:08.885Z,100390.63
2023-02-09T04:36:37.961Z,100400.06
2023-02-09T04:39:07.059Z,100397.22
2023-02-09T04:41:36.235Z,100398.03
2023-02-09T04:44:06.910Z,100398.50
2023-02-09T04:46:36.116Z,100402.53
2023-02-09T04:49:05.277Z,100394.59
2023-02-09T04:51:34.476Z,100398.22
2023-02-09T04:54:03.589Z,100393.75
2023-02-09T04:56:32.719Z,100395.91
2023-02-09T04:59:19.302Z,100394.72
2023-02-09T05:01:49.783Z,100397.69
2023-02-09T05:04:18.806Z,100391.63
2023-02-09T05:06:47.869Z,100395.34
2023-02-09T05:09:16.955Z,100400.34
2023-02-09T05:11:46.030Z,100400.59
2023-02-09T05:14:15.380Z,100403.00
2023-02-09T05:16:44.490Z,100408.47
2023-02-09T05:19:16.152Z,100412.50
2023-02-09T05:21:45.207Z,100402.78
2023-02-09T05:24:14.423Z,100400.91
2023-02-09T05:26:43.497Z,100407.69
2023-02-09T05:29:12.570Z,100413.72
2023-02-09T05:31:42.803Z,100402.13
2023-02-09T05:34:12.026Z,100399.03
2023-02-09T05:36:42.482Z,100405.44
2023-02-09T05:39:11.507Z,100408.88
2023-02-09T05:41:58.207Z,100406.25
2023-02-09T05:44:27.266Z,100413.59
2023-02-09T05:46:56.327Z,100417.75
2023-02-09T05:49:25.472Z,100416.69
2023-02-09T05:51:55.886Z,100413.63
2023-02-09T05:54:25.176Z,100417.03
2023-02-09T05:56:54.270Z,100415.38
2023-02-09T05:59:23.362Z,100415.03
2023-02-09T06:01:52.744Z,100419.16
2023-02-09T06:04:22.232Z,100418.13
2023-02-09T06:06:51.294Z,100419.44
2023-02-09T06:09:22.211Z,100420.03
2023-02-09T06:11:51.544Z,100426.88
2023-02-09T06:14:20.953Z,100430.91
2023-02-09T06:16:50.019Z,100430.53
2023-02-09T06:19:22.518Z,100424.50
2023-02-09T06:21:51.620Z,100422.13
2023-02-09T06:24:22.072Z,100427.91
2023-02-09T06:26:51.103Z,100431.72
2023-02-09T06:29:20.252Z,100437.81
2023-02-09T06:31:49.432Z,100443.47
2023-02-09T06:34:18.629Z,100442.22
2023-02-09T06:36:47.752Z,100437.13
2023-02-09T06:39:16.854Z,100439.50
2023-02-09T06:41:47.279Z,100449.53
2023-02-09T06:44:16.403Z,100451.41
2023-02-09T06:46:45.388Z,100457.44
2023-02-09T06:49:14.733Z,100450.53
2023-02-09T06:51:43.920Z,100448.59
2023-02-09T06:54:13.032Z,100453.41
2023-02-09T06:56:42.083Z,100453.56
2023-02-09T06:59:12.630Z,100454.09
2023-02-09T07:01:41.883Z,100454.03
2023-02-09T07:04:10.946Z,100460.50
2023-02-09T07:06:39.961Z,100465.22
2023-02-09T07:09:09.192Z,100463.50
2023-02-09T07:11:38.329Z,100458.53
2023-02-09T07:14:07.402Z,100455.88
2023-02-09T07:16:37.881Z,100461.09
2023-02-09T07:19:06.953Z,100458.59
2023-02-09T07:21:35.998Z,100466.72
2023-02-09T07:24:05.731Z,100465.56
2023-02-09T07:26:34.857Z,100455.16
2023-02-09T07:29:03.917Z,100458.00
2023-02-09T07:31:33.138Z,100449.97
2023-02-09T07:34:03.618Z,100457.16
2023-02-09T07:36:32.733Z,100456.19
2023-02-09T07:39:02.337Z,100459.69
2023-02-09T07:41:31.456Z,100452.19
2023-02-09T07:44:00.508Z,100454.16
2023-02-09T07:46:29.641Z,100448.56
2023-02-09T07:49:01.232Z,100443.72
2023-02-09T07:51:34.075Z,100442.16
2023-02-09T07:54:04.634Z,100445.97
2023-02-09T07:56:39.403Z,100438.09
2023-02-09T07:59:09.314Z,100441.38
2023-02-09T08:01:38.473Z,100450.03
2023-02-09T08:04:07.619Z,100445.38
2023-02-09T08:06:43.189Z,100452.97
2023-02-09T08:09:14.924Z,100452.19
2023-02-09T08:11:49.907Z,100447.72
2023-02-09T08:14:25.091Z,100446.44
2023-02-09T08:17:18.967Z,100444.56
2023-02-09T08:19:51.372Z,100446.59
2023-02-09T08:22:23.534Z,100446.03
2023-02-09T08:24:53.147Z,100444.44
2023-02-09T08:27:23.331Z,100437.03
2023-02-09T08:29:52.677Z,100444.47
2023-02-09T08:32:21.806Z,100441.72
2023-02-09T08:34:50.923Z,100437.59
2023-02-09T08:37:21.389Z,100443.38
2023-02-09T08:39:50.513Z,100448.88
2023-02-09T08:42:19.725Z,100453.25
2023-02-09T08:44:48.803Z,100449.34
2023-02-09T08:47:17.982Z,100448.72
2023-02-09T08:49:47.041Z,100449.25
2023-02-09T08:52:16.653Z,100451.91
2023-02-09T08:54:47.123Z,100452.44
2023-02-09T08:57:16.225Z,100457.28
2023-02-09T08:59:45.282Z,100456.31
2023-02-09T09:02:14.375Z,100456.25
2023-02-09T09:04:43.465Z,100447.13
2023-02-09T09:07:12.524Z,100455.81
2023-02-09T09:09:41.675Z,100456.72
2023-02-09T09:12:12.196Z,100454.38
2023-02-09T09:14:41.774Z,100453.75
2023-02-09T09:17:10.895Z,100452.09
2023-02-09T09:19:40.175Z,100462.00
2023-02-09T09:22:09.276Z,100450.66
2023-02-09T09:24:40.791Z,100448.22
2023-02-09T09:27:11.820Z,100449.19
2023-02-09T09:29:40.968Z,100457.84
2023-02-09T09:32:13.898Z,100451.44
2023-02-09T09:34:43.514Z,100452.88
2023-02-09T09:37:12.583Z,100451.22
2023-02-09T09:39:41.610Z,100448.13
2023-02-09T09:42:25.536Z,100451.03
2023-02-09T09:44:55.695Z,100446.50
2023-02-09T09:47:35.815Z,100447.91
2023-02-09T09:50:07.673Z,100449.31
2023-02-09T09:52:41.445Z,100447.66
2023-02-09T09:55:19.227Z,100443.06
2023-02-09T09:57:50.833Z,100443.50
2023-02-09T10:00:24.453Z,100437.06
2023-02-09T10:02:53.803Z,100437.94
2023-02-09T10:05:26.711Z,100435.09
2023-02-09T10:08:02.334Z,100432.22
2023-02-09T10:10:44.990Z,100422.66
2023-02-09T10:13:24.815Z,100424.47
2023-02-09T10:15:55.875Z,100423.19
2023-02-09T10:18:26.627Z,100426.47
2023-02-09T10:21:02.451Z,100421.72
2023-02-09T10:23:41.677Z,100414.22
2023-02-09T10:26:24.993Z,100414.34
2023-02-09T10:28:58.178Z,100404.47
2023-02-09T10:31:33.293Z,100404.66
2023-02-09T10:34:11.775Z,100399.09
2023-02-09T10:36:49.730Z,100401.53
2023-02-09T10:39:22.449Z,100397.25
2023-02-09T10:41:54.056Z,100394.19
2023-02-09T10:44:28.036Z,100386.16
2023-02-09T10:47:12.052Z,100383.69
2023-02-09T10:49:41.126Z,100378.94
2023-02-09T10:52:19.390Z,100372.56
2023-02-09T10:54:52.015Z,100373.16
2023-02-09T10:57:25.283Z,100364.13
2023-02-09T10:59:59.624Z,100365.75
2023-02-09T11:02:38.856Z,100360.72
2023-02-09T11:05:29.752Z,100363.38
2023-02-09T11:08:07.723Z,100350.50
2023-02-09T11:10:42.570Z,100341.81
2023-02-09T11:13:25.030Z,100344.19
2023-02-09T11:16:44.449Z,100342.31
2023-02-09T11:19:31.573Z,100337.50
2023-02-09T11:22:12.774Z,100337.50
2023-02-09T11:24:54.160Z,100333.31
2023-02-09T11:27:42.651Z,100334.59
2023-02-09T11:30:38.893Z,100332.31
2023-02-09T11:33:17.534Z,100329.66
2023-02-09T11:35:59.423Z,100314.81
2023-02-09T11:38:40.310Z,100320.41
2023-02-09T11:41:34.365Z,100300.94
2023-02-09T11:44:07.683Z,100306.75
2023-02-09T11:46:38.614Z,100302.22
2023-02-09T11:49:19.256Z,100295.53
2023-02-09T11:51:50.851Z,100298.22
2023-02-09T11:54:24.565Z,100294.16
2023-02-09T11:57:02.704Z,100295.63
2023-02-09T11:59:39.933Z,100296.97
2023-02-09T12:02:23.463Z,100290.75
2023-02-09T12:05:00.404Z,100294.50
2023-02-09T12:07:37.408Z,100286.16
2023-02-09T12:10:20.659Z,100290.94
2023-02-09T12:12:55.885Z,100278.78
2023-02-09T12:15:29.014Z,100281.09
2023-02-09T12:18:05.088Z,100269.25
2023-02-09T12:20:53.999Z,100269.94
2023-02-09T12:23:31.659Z,100260.91
2023-02-09T12:26:01.839Z,100259.75
2023-02-09T12:28:44.964Z,100254.38
2023-02-09T12:31:25.736Z,100257.47
2023-02-09T12:34:24.959Z,100269.97
2023-02-09T12:37:30.350Z,100259.97
2023-02-09T12:40:24.055Z,100246.19
2023-02-09T12:43:29.435Z,100242.38
2023-02-09T12:46:16.357Z,100244.25
2023-02-09T12:49:10.511Z,100234.16
2023-02-09T12:52:09.639Z,100231.78
2023-02-09T12:55:01.036Z,100224.34
2023-02-09T12:57:54.223Z,100222.16
2023-02-09T13:00:56.403Z,100220.72
2023-02-09T13:03:27.698Z,100211.91
2023-02-09T13:06:03.132Z,100215.75
2023-02-09T13:08:39.966Z,100215.13
2023-02-09T13:11:26.801Z,100206.22
2023-02-09T13:13:59.086Z,100211.91
2023-02-09T13:17:11.850Z,100204.44
2023-02-09T13:20:06.081Z,100203.84
2023-02-09T13:22:51.888Z,100209.66
2023-02-09T13:25:32.505Z,100217.44
2023-02-09T13:28:15.852Z,100210.91
2023-02-09T13:30:45.803Z,100201.47
2023-02-09T13:33:33.615Z,100203.50
2023-02-09T13:36:24.807Z,100199.94
2023-02-09T13:38:54.948Z,100205.00
2023-02-09T13:41:33.092Z,100200.09
2023-02-09T13:44:04.110Z,100198.06
2023-02-09T13:46:35.422Z,100200.69
2023-02-09T13:49:13.261Z,100200.59
2023-02-09T13:51:42.621Z,100196.66
2023-02-09T13:54:20.361Z,100207.34
2023-02-09T13:56:49.617Z,100197.94
2023-02-09T13:59:20.169Z,100200.06
2023-02-09T14:01:50.525Z,100189.97
2023-02-09T14:04:25.499Z,100188.66
2023-02-09T14:07:03.194Z,100187.00
2023-02-09T14:09:43.319Z,100191.66
2023-02-09T14:12:18.788Z,100190.41
2023-02-09T14:15:15.820Z,100187.47
2023-02-09T14:17:53.496Z,100185.59
2023-02-09T14:20:25.910Z,100187.03
2023-02-09T14:23:00.694Z,100192.59
2023-02-09T14:25:31.911Z,100191.38
2023-02-09T14:28:01.384Z,100189.41
2023-02-09T14:30:36.375Z,100190.69
2023-02-09T14:33:06.249Z,100186.66
2023-02-09T14:35:40.541Z,100184.19
2023-02-09T14:38:38.635Z,100191.19
2023-02-09T14:41:30.501Z,100197.97
2023-02-09T14:44:02.087Z,100196.47
2023-02-09T14:46:49.656Z,100182.53
2023-02-09T14:49:19.658Z,100185.16
2023-02-09T14:51:51.336Z,100180.91
2023-02-09T14:54:26.590Z,100181.19
2023-02-09T14:56:58.741Z,100176.63
2023-02-09T14:59:28.301Z,100187.47
2023-02-09T15:01:59.127Z,100190.84
2023-02-09T15:04:33.194Z,100185.06
2023-02-09T15:07:05.102Z,100188.97
2023-02-09T15:09:38.216Z,100182.31
2023-02-09T15:12:08.945Z,100176.69
2023-02-09T15:14:44.707Z,100179.47
2023-02-09T15:17:19.001Z,100177.84
2023-02-09T15:19:49.046Z,100170.94
2023-02-09T15:22:19.095Z,100167.19
2023-02-09T15:24:52.287Z,100161.78
2023-02-09T15:27:30.167Z,100158.53
2023-02-09T15:30:02.305Z,100160.56
2023-02-09T15:32:34.691Z,100144.41
2023-02-09T15:35:05.242Z,100154.13
2023-02-09T15:37:38.299Z,100156.69
2023-02-09T15:40:43.938Z,100151.97
2023-02-09T15:43:34.285Z,100152.19
2023-02-09T15:46:21.741Z,100152.56
2023-02-09T15:48:52.360Z,100147.69
2023-02-09T15:51:22.798Z,100147.31
2023-02-09T15:53:54.259Z,100146.28
2023-02-09T15:56:23.763Z,100146.63
2023-02-09T15:58:53.432Z,100146.22
2023-02-09T16:01:22.501Z,100144.81
2023-02-09T16:03:55.238Z,100148.63
2023-02-09T16:06:26.058Z,100148.63
2023-02-09T16:08:57.911Z,100156.50
2023-02-09T16:11:33.009Z,100148.53
2023-02-09T16:14:02.616Z,100149.53
2023-02-09T16:16:32.217Z,100150.03
2023-02-09T16:19:02.800Z,100151.13
2023-02-09T16:21:36.172Z,100148.22
2023-02-09T16:24:07.576Z,100150.22
2023-02-09T16:26:37.048Z,100144.41
2023-02-09T16:29:12.281Z,100150.84
2023-02-09T16:31:42.344Z,100150.03
2023-02-09T16:34:15.761Z,100151.19
2023-02-09T16:36:46.395Z,100149.78
2023-02-09T16:39:20.634Z,100154.84
2023-02-09T16:41:53.873Z,100152.72
2023-02-09T16:44:26.035Z,100155.34
2023-02-09T16:46:59.791Z,100159.56
2023-02-09T16:49:38.976Z,100158.09
2023-02-09T16:52:16.943Z,100165.16
2023-02-09T16:54:49.302Z,100168.81
2023-02-09T16:57:23.238Z,100167.84
2023-02-09T16:59:53.555Z,100170.75
2023-02-09T17:02:39.858Z,100168.28
2023-02-09T17:05:20.380Z,100170.88
2023-02-09T17:07:55.677Z,100173.66
2023-02-09T17:10:28.956Z,100171.00
2023-02-09T17:12:58.674Z,100167.75
2023-02-09T17:15:31.652Z,100171.34
2023-02-09T17:18:06.600Z,100175.53
2023-02-09T17:20:42.672Z,100181.59
2023-02-09T17:23:17.627Z,100176.75
2023-02-09T17:25:48.157Z,100171.81
2023-02-09T17:28:18.199Z,100183.38
2023-02-09T17:30:49.634Z,100176.22
2023-02-09T17:33:24.759Z,100181.16
2023-02-09T17:36:24.709Z,100184.50
2023-02-09T17:38:48.050Z,100179.69
2023-02-09T17:41:23.162Z,100182.78
2023-02-09T17:43:53.798Z,100175.91
2023-02-09T17:46:23.832Z,100177.09
2023-02-09T17:48:53.255Z,100174.91
2023-02-09T17:51:30.800Z,100180.13
2023-02-09T17:53:59.964Z,100176.59
2023-02-09T17:56:29.101Z,100174.91
2023-02-09T17:59:03.098Z,100181.22
2023-02-09T18:01:33.456Z,100180.97
2023-02-09T18:04:03.573Z,100181.00
2023-02-09T18:06:37.548Z,100179.09
2023-02-09T18:09:09.651Z,100182.16
2023-02-09T18:12:00.044Z,100186.00
2023-02-09T18:14:31.440Z,100185.75
2023-02-09T18:17:00.943Z,100197.56
2023-02-09T18:19:30.140Z,100189.56
2023-02-09T18:22:02.988Z,100193.59
2023-02-09T18:24:36.429Z,100191.34
2023-02-09T18:27:08.132Z,100198.50
2023-02-09T18:29:37.344Z,100192.72
2023-02-09T18:32:07.696Z,100192.47
2023-02-09T18:34:37.402Z,100195.31
2023-02-09T18:37:08.304Z,100198.66
2023-02-09T18:39:40.776Z,100197.00
2023-02-09T18:42:14.704Z,100200.34
2023-02-09T18:44:44.267Z,100186.59
2023-02-09T18:47:14.120Z,100183.28
2023-02-09T18:49:43.331Z,100190.44
2023-02-09T18:52:18.865Z,100191.81
2023-02-09T18:54:48.101Z,100195.94
2023-02-09T18:57:18.354Z,100199.78
2023-02-09T18:59:50.058Z,100205.28
2023-02-09T19:02:19.687Z,100205.81
2023-02-09T19:04:48.984Z,100200.88
2023-02-09T19:07:19.456Z,100200.59
2023-02-09T19:09:48.525Z,100204.69
2023-02-09T19:12:17.602Z,100201.97
2023-02-09T19:14:47.924Z,100208.25
2023-02-09T19:17:20.333Z,100198.09
2023-02-09T19:19:50.232Z,100201.38
2023-02-09T19:22:22.853Z,100208.78
2023-02-09T19:24:56.113Z,100200.28
2023-02-09T19:27:27.589Z,100203.56
2023-02-09T19:29:58.823Z,100198.06
2023-02-09T19:32:28.988Z,100202.44
2023-02-09T19:34:58.486Z,100200.81
2023-02-09T19:37:30.311Z,100203.53
2023-02-09T19:40:07.332Z,100214.78
2023-02-09T19:42:36.976Z,100215.88
2023-02-09T19:45:07.249Z,100215.03
2023-02-09T19:47:38.304Z,100220.00
2023-02-09T19:50:08.025Z,100213.72
2023-02-09T19:52:40.837Z,100206.34
2023-02-09T19:55:12.103Z,100203.63
2023-02-09T19:57:42.530Z,100208.56
2023-02-09T20:00:15.805Z,100204.69
2023-02-09T20:02:44.893Z,100208.00
2023-02-09T20:05:14.183Z,100216.16
2023-02-09T20:07:44.844Z,100204.00
2023-02-09T20:10:14.193Z,100206.72
2023-02-09T20:15:18.805Z,100201.16
2023-02-09T20:20:22.114Z,100206.16
2023-02-09T20:22:52.846Z,100198.47
2023-02-09T20:25:22.152Z,100196.81
2023-02-09T20:27:52.206Z,100203.94
2023-02-09T20:30:21.534Z,100208.31
2023-02-09T20:32:50.759Z,100206.13
2023-02-09T20:35:20.080Z,100192.13
2023-02-09T20:37:49.546Z,100189.91
2023-02-09T20:40:20.604Z,100197.53
2023-02-09T20:43:08.494Z,100198.81
2023-02-09T20:45:55.112Z,100195.78
2023-02-09T20:48:24.307Z,100191.94
2023-02-09T20:50:55.088Z,100192.22
2023-02-09T20:53:24.492Z,100193.81
2023-02-09T20:55:54.983Z,100193.81
2023-02-09T20:58:24.086Z,100198.97
2023-02-09T21:00:53.839Z,100200.34
2023-02-09T21:03:23.950Z,100197.66
2023-02-09T21:05:53.233Z,100194.41
2023-02-09T21:08:22.895Z,100195.59
2023-02-09T21:10:58.361Z,100200.47
2023-02-09T21:13:27.508Z,100196.13
2023-02-09T21:15:56.971Z,100192.72
2023-02-09T21:18:26.111Z,100189.38
2023-02-09T21:20:55.647Z,100192.88
2023-02-09T21:23:24.762Z,100183.50
2023-02-09T21:26:03.660Z,100193.75
2023-02-09T21:28:33.295Z,100195.34
2023-02-09T21:31:02.550Z,100185.22
2023-02-09T21:33:31.643Z,100189.03
2023-02-09T21:36:00.716Z,100183.22
2023-02-09T21:38:29.854Z,100176.66
2023-02-09T21:40:58.897Z,100183.47
2023-02-09T21:43:29.364Z,100171.69
2023-02-09T21:45:58.450Z,100176.56
2023-02-09T21:48:27.587Z,100171.34
2023-02-09T21:50:56.928Z,100179.56
2023-02-09T21:53:26.283Z,100181.75
2023-02-09T21:55:55.431Z,100179.88
2023-02-09T21:58:24.520Z,100170.03
2023-02-09T22:00:59.908Z,100176.56
2023-02-09T22:03:28.982Z,100177.13
2023-02-09T22:05:58.165Z,100184.78
2023-02-09T22:08:27.866Z,100181.72
2023-02-09T22:11:00.301Z,100192.31
2023-02-09T22:13:29.611Z,100194.31
2023-02-09T22:16:00.558Z,100193.59
2023-02-09T22:18:29.681Z,100194.72
2023-02-09T22:21:00.514Z,100195.34
2023-02-09T22:23:29.658Z,100194.25
2023-02-09T22:26:02.594Z,100195.69
2023-02-09T22:28:34.496Z,100194.47
2023-02-09T22:31:13.328Z,100197.72
2023-02-09T22:33:43.155Z,100195.88
2023-02-09T22:36:16.206Z,100193.88
2023-02-09T22:38:46.076Z,100187.34
2023-02-09T22:41:22.376Z,100180.09
2023-02-09T22:43:52.654Z,100187.69
2023-02-09T22:46:25.620Z,100182.25
2023-02-09T22:48:57.008Z,100186.66
2023-02-09T22:51:28.607Z,100184.94
2023-02-09T22:53:58.346Z,100185.59
2023-02-09T22:56:28.435Z,100185.28
2023-02-09T22:58:59.163Z,100184.41
2023-02-09T23:01:30.852Z,100190.66
2023-02-09T23:04:00.454Z,100182.28
2023-02-09T23:06:30.809Z,100184.25
2023-02-09T23:09:04.287Z,100181.34
2023-02-09T23:11:33.523Z,100181.75
2023-02-09T23:14:11.169Z,100183.31
2023-02-09T23:16:43.554Z,100190.28
2023-02-09T23:19:15.089Z,100182.25
2023-02-09T23:21:46.536Z,100185.50
2023-02-09T23:24:17.529Z,100185.13
2023-02-09T23:26:46.671Z,100181.31
2023-02-09T23:29:17.586Z,100167.38
2023-02-09T23:31:48.919Z,100168.72
2023-02-09T23:34:21.118Z,100168.53
2023-02-09T23:36:50.357Z,100162.09
2023-02-09T23:39:22.405Z,100161.91
2023-02-09T23:41:51.543Z,100169.41
2023-02-09T23:44:20.753Z,100154.59
2023-02-09T23:46:51.283Z,100163.38
2023-02-09T23:49:20.394Z,100161.34
2023-02-09T23:51:49.541Z,100159.34
2023-02-09T23:54:18.611Z,100160.44
2023-02-09T23:56:49.755Z,100158.69
2023-02-09T23:59:18.837Z,100150.84
